sensor_id;sensor_type;location;lat;lon;timestamp;P1;durP1;ratioP1;P2;durP2;ratioP2
7707;SDS011;3896;48.758;8.888;2023-12-28T00:01:23;2.57;;;1.67;;
7707;SDS011;3896;48.758;8.888;2023-12-28T00:03:49;3.03;;;2.00;;
7707;SDS011;3896;48.758;8.888;2023-12-28T00:06:15;2.00;;;1.83;;
7707;SDS011;3896;48.758;8.888;2023-12-28T00:08:41;2.23;;;2.03;;
7707;SDS011;3896;48.758;8.888;2023-12-28T00:11:07;3.57;;;2.03;;
7707;SDS011;3896;48.758;8.888;2023-12-28T00:13:32;2.50;;;2.07;;
7707;SDS011;3896;48.758;8.888;2023-12-28T00:15:58;6.27;;;2.17;;
7707;SDS011;3896;48.758;8.888;2023-12-28T00:18:24;3.23;;;2.10;;
7707;SDS011;3896;48.758;8.888;2023-12-28T00:20:49;3.17;;;2.47;;
7707;SDS011;3896;48.758;8.888;2023-12-28T00:23:15;4.20;;;2.17;;
7707;SDS011;3896;48.758;8.888;2023-12-28T00:25:41;2.23;;;2.00;;
7707;SDS011;3896;48.758;8.888;2023-12-28T00:28:06;2.40;;;2.20;;
7707;SDS011;3896;48.758;8.888;2023-12-28T00:30:32;1.77;;;1.67;;
7707;SDS011;3896;48.758;8.888;2023-12-28T00:32:58;4.87;;;2.07;;
7707;SDS011;3896;48.758;8.888;2023-12-28T00:35:23;1.77;;;1.60;;
7707;SDS011;3896;48.758;8.888;2023-12-28T00:37:49;3.47;;;1.90;;
7707;SDS011;3896;48.758;8.888;2023-12-28T00:40:15;3.40;;;2.03;;
7707;SDS011;3896;48.758;8.888;2023-12-28T00:42:40;3.27;;;1.83;;
7707;SDS011;3896;48.758;8.888;2023-12-28T00:45:06;2.20;;;2.00;;
7707;SDS011;3896;48.758;8.888;2023-12-28T00:47:33;1.73;;;1.60;;
7707;SDS011;3896;48.758;8.888;2023-12-28T00:49:58;2.93;;;2.00;;
7707;SDS011;3896;48.758;8.888;2023-12-28T00:52:24;2.27;;;1.70;;
7707;SDS011;3896;48.758;8.888;2023-12-28T00:54:49;3.00;;;1.77;;
7707;SDS011;3896;48.758;8.888;2023-12-28T00:57:15;1.40;;;1.30;;
7707;SDS011;3896;48.758;8.888;2023-12-28T00:59:40;2.00;;;1.90;;
7707;SDS011;3896;48.758;8.888;2023-12-28T01:02:07;3.20;;;1.90;;
7707;SDS011;3896;48.758;8.888;2023-12-28T01:04:32;2.53;;;1.67;;
7707;SDS011;3896;48.758;8.888;2023-12-28T01:06:58;1.57;;;1.43;;
7707;SDS011;3896;48.758;8.888;2023-12-28T01:09:26;2.60;;;1.90;;
7707;SDS011;3896;48.758;8.888;2023-12-28T01:11:52;2.47;;;1.97;;
7707;SDS011;3896;48.758;8.888;2023-12-28T01:14:18;1.50;;;1.40;;
7707;SDS011;3896;48.758;8.888;2023-12-28T01:16:44;1.60;;;1.50;;
7707;SDS011;3896;48.758;8.888;2023-12-28T01:19:09;1.93;;;1.70;;
7707;SDS011;3896;48.758;8.888;2023-12-28T01:21:35;1.60;;;1.20;;
7707;SDS011;3896;48.758;8.888;2023-12-28T01:24:00;1.70;;;1.60;;
7707;SDS011;3896;48.758;8.888;2023-12-28T01:26:26;1.90;;;1.80;;
7707;SDS011;3896;48.758;8.888;2023-12-28T01:28:51;2.40;;;1.83;;
7707;SDS011;3896;48.758;8.888;2023-12-28T01:31:17;1.97;;;1.83;;
7707;SDS011;3896;48.758;8.888;2023-12-28T01:33:42;2.00;;;1.80;;
7707;SDS011;3896;48.758;8.888;2023-12-28T01:36:17;2.97;;;1.60;;
7707;SDS011;3896;48.758;8.888;2023-12-28T01:38:44;2.93;;;1.77;;
7707;SDS011;3896;48.758;8.888;2023-12-28T01:41:10;2.57;;;1.40;;
7707;SDS011;3896;48.758;8.888;2023-12-28T01:43:37;2.33;;;1.43;;
7707;SDS011;3896;48.758;8.888;2023-12-28T01:46:03;2.80;;;1.57;;
7707;SDS011;3896;48.758;8.888;2023-12-28T01:48:30;2.03;;;1.67;;
7707;SDS011;3896;48.758;8.888;2023-12-28T01:50:55;1.40;;;1.27;;
7707;SDS011;3896;48.758;8.888;2023-12-28T01:53:21;1.57;;;1.47;;
7707;SDS011;3896;48.758;8.888;2023-12-28T01:55:48;3.10;;;1.73;;
7707;SDS011;3896;48.758;8.888;2023-12-28T01:58:14;1.20;;;1.10;;
7707;SDS011;3896;48.758;8.888;2023-12-28T02:00:39;1.40;;;1.30;;
7707;SDS011;3896;48.758;8.888;2023-12-28T02:03:07;1.63;;;1.50;;
7707;SDS011;3896;48.758;8.888;2023-12-28T02:05:33;1.00;;;1.00;;
7707;SDS011;3896;48.758;8.888;2023-12-28T02:07:59;3.10;;;1.53;;
7707;SDS011;3896;48.758;8.888;2023-12-28T02:10:25;1.50;;;1.30;;
7707;SDS011;3896;48.758;8.888;2023-12-28T02:12:51;1.87;;;1.50;;
7707;SDS011;3896;48.758;8.888;2023-12-28T02:15:18;1.40;;;1.30;;
7707;SDS011;3896;48.758;8.888;2023-12-28T02:20:13;1.50;;;1.40;;
7707;SDS011;3896;48.758;8.888;2023-12-28T02:22:40;1.90;;;1.30;;
7707;SDS011;3896;48.758;8.888;2023-12-28T02:27:33;1.53;;;1.43;;
7707;SDS011;3896;48.758;8.888;2023-12-28T02:30:01;3.10;;;1.50;;
7707;SDS011;3896;48.758;8.888;2023-12-28T02:32:29;1.80;;;1.50;;
7707;SDS011;3896;48.758;8.888;2023-12-28T02:35:32;1.80;;;1.40;;
7707;SDS011;3896;48.758;8.888;2023-12-28T02:38:08;4.17;;;1.60;;
7707;SDS011;3896;48.758;8.888;2023-12-28T02:40:38;3.47;;;1.70;;
7707;SDS011;3896;48.758;8.888;2023-12-28T02:59:48;1.43;;;1.20;;
7707;SDS011;3896;48.758;8.888;2023-12-28T03:02:14;2.60;;;1.13;;
7707;SDS011;3896;48.758;8.888;2023-12-28T03:04:39;1.30;;;1.20;;
7707;SDS011;3896;48.758;8.888;2023-12-28T03:07:05;1.87;;;1.20;;
7707;SDS011;3896;48.758;8.888;2023-12-28T03:09:33;3.03;;;1.63;;
7707;SDS011;3896;48.758;8.888;2023-12-28T03:11:59;2.97;;;1.40;;
7707;SDS011;3896;48.758;8.888;2023-12-28T03:14:25;3.30;;;2.87;;
7707;SDS011;3896;48.758;8.888;2023-12-28T03:16:51;1.50;;;1.33;;
7707;SDS011;3896;48.758;8.888;2023-12-28T03:19:16;1.57;;;1.47;;
7707;SDS011;3896;48.758;8.888;2023-12-28T03:21:42;1.57;;;1.27;;
7707;SDS011;3896;48.758;8.888;2023-12-28T03:24:08;1.63;;;1.53;;
7707;SDS011;3896;48.758;8.888;2023-12-28T03:26:37;1.73;;;1.53;;
7707;SDS011;3896;48.758;8.888;2023-12-28T03:29:05;1.67;;;1.57;;
7707;SDS011;3896;48.758;8.888;2023-12-28T03:31:31;1.40;;;1.30;;
7707;SDS011;3896;48.758;8.888;2023-12-28T03:33:56;1.50;;;1.30;;
7707;SDS011;3896;48.758;8.888;2023-12-28T03:36:22;1.43;;;1.33;;
7707;SDS011;3896;48.758;8.888;2023-12-28T03:38:48;1.97;;;1.20;;
7707;SDS011;3896;48.758;8.888;2023-12-28T03:41:17;1.37;;;1.27;;
7707;SDS011;3896;48.758;8.888;2023-12-28T03:43:43;1.53;;;1.27;;
7707;SDS011;3896;48.758;8.888;2023-12-28T03:46:09;1.57;;;1.13;;
7707;SDS011;3896;48.758;8.888;2023-12-28T03:48:35;1.57;;;1.40;;
7707;SDS011;3896;48.758;8.888;2023-12-28T03:51:02;1.90;;;1.57;;
7707;SDS011;3896;48.758;8.888;2023-12-28T03:53:28;1.07;;;1.00;;
7707;SDS011;3896;48.758;8.888;2023-12-28T03:55:53;1.63;;;1.23;;
7707;SDS011;3896;48.758;8.888;2023-12-28T03:58:19;1.20;;;1.10;;
7707;SDS011;3896;48.758;8.888;2023-12-28T04:00:44;2.13;;;1.30;;
7707;SDS011;3896;48.758;8.888;2023-12-28T04:03:10;1.77;;;1.10;;
7707;SDS011;3896;48.758;8.888;2023-12-28T04:05:36;1.80;;;1.20;;
7707;SDS011;3896;48.758;8.888;2023-12-28T04:08:01;1.43;;;1.13;;
7707;SDS011;3896;48.758;8.888;2023-12-28T04:10:31;1.67;;;1.57;;
7707;SDS011;3896;48.758;8.888;2023-12-28T04:12:57;1.00;;;1.00;;
7707;SDS011;3896;48.758;8.888;2023-12-28T04:15:24;1.60;;;1.10;;
7707;SDS011;3896;48.758;8.888;2023-12-28T04:17:50;1.30;;;1.20;;
7707;SDS011;3896;48.758;8.888;2023-12-28T04:20:16;1.30;;;1.20;;
7707;SDS011;3896;48.758;8.888;2023-12-28T04:22:42;2.90;;;1.60;;
7707;SDS011;3896;48.758;8.888;2023-12-28T04:25:11;3.20;;;2.07;;
7707;SDS011;3896;48.758;8.888;2023-12-28T04:27:37;2.97;;;2.23;;
7707;SDS011;3896;48.758;8.888;2023-12-28T04:30:03;2.47;;;1.70;;
7707;SDS011;3896;48.758;8.888;2023-12-28T04:32:30;2.37;;;1.77;;
7707;SDS011;3896;48.758;8.888;2023-12-28T04:34:56;1.10;;;1.10;;
7707;SDS011;3896;48.758;8.888;2023-12-28T04:37:22;1.40;;;1.30;;
7707;SDS011;3896;48.758;8.888;2023-12-28T04:39:47;1.30;;;1.20;;
7707;SDS011;3896;48.758;8.888;2023-12-28T04:42:13;2.13;;;1.13;;
7707;SDS011;3896;48.758;8.888;2023-12-28T04:44:39;1.40;;;1.30;;
7707;SDS011;3896;48.758;8.888;2023-12-28T04:47:05;1.33;;;1.23;;
7707;SDS011;3896;48.758;8.888;2023-12-28T04:49:31;2.67;;;1.23;;
7707;SDS011;3896;48.758;8.888;2023-12-28T04:51:56;1.13;;;1.03;;
7707;SDS011;3896;48.758;8.888;2023-12-28T04:54:22;1.47;;;1.37;;
7707;SDS011;3896;48.758;8.888;2023-12-28T04:56:48;1.50;;;1.27;;
7707;SDS011;3896;48.758;8.888;2023-12-28T04:59:13;2.80;;;1.60;;
7707;SDS011;3896;48.758;8.888;2023-12-28T05:01:42;2.80;;;1.30;;
7707;SDS011;3896;48.758;8.888;2023-12-28T05:04:08;1.47;;;1.40;;
7707;SDS011;3896;48.758;8.888;2023-12-28T05:06:34;1.70;;;1.23;;
7707;SDS011;3896;48.758;8.888;2023-12-28T05:09:00;2.47;;;1.47;;
7707;SDS011;3896;48.758;8.888;2023-12-28T05:11:26;1.10;;;1.03;;
7707;SDS011;3896;48.758;8.888;2023-12-28T05:13:51;1.37;;;1.23;;
7707;SDS011;3896;48.758;8.888;2023-12-28T05:16:17;2.97;;;1.50;;
7707;SDS011;3896;48.758;8.888;2023-12-28T05:18:43;1.93;;;1.67;;
7707;SDS011;3896;48.758;8.888;2023-12-28T05:21:08;2.43;;;1.70;;
7707;SDS011;3896;48.758;8.888;2023-12-28T05:23:34;2.13;;;1.20;;
7707;SDS011;3896;48.758;8.888;2023-12-28T05:25:59;4.33;;;1.40;;
7707;SDS011;3896;48.758;8.888;2023-12-28T05:28:25;1.50;;;1.40;;
7707;SDS011;3896;48.758;8.888;2023-12-28T05:30:51;2.27;;;1.70;;
7707;SDS011;3896;48.758;8.888;2023-12-28T05:33:16;1.67;;;1.20;;
7707;SDS011;3896;48.758;8.888;2023-12-28T05:35:42;1.43;;;1.30;;
7707;SDS011;3896;48.758;8.888;2023-12-28T05:38:07;1.40;;;1.30;;
7707;SDS011;3896;48.758;8.888;2023-12-28T05:40:33;3.73;;;1.20;;
7707;SDS011;3896;48.758;8.888;2023-12-28T05:42:58;2.50;;;1.40;;
7707;SDS011;3896;48.758;8.888;2023-12-28T05:45:24;1.57;;;0.93;;
7707;SDS011;3896;48.758;8.888;2023-12-28T05:47:49;4.00;;;1.73;;
7707;SDS011;3896;48.758;8.888;2023-12-28T05:50:15;1.27;;;1.10;;
7707;SDS011;3896;48.758;8.888;2023-12-28T05:52:40;1.00;;;0.90;;
7707;SDS011;3896;48.758;8.888;2023-12-28T05:55:06;1.43;;;1.00;;
7707;SDS011;3896;48.758;8.888;2023-12-28T05:57:32;2.77;;;0.90;;
7707;SDS011;3896;48.758;8.888;2023-12-28T05:59:58;2.00;;;0.83;;
7707;SDS011;3896;48.758;8.888;2023-12-28T06:02:24;1.43;;;1.07;;
7707;SDS011;3896;48.758;8.888;2023-12-28T06:04:49;2.10;;;1.23;;
7707;SDS011;3896;48.758;8.888;2023-12-28T06:07:15;0.93;;;0.90;;
7707;SDS011;3896;48.758;8.888;2023-12-28T06:09:40;1.20;;;1.10;;
7707;SDS011;3896;48.758;8.888;2023-12-28T06:12:06;0.87;;;0.87;;
7707;SDS011;3896;48.758;8.888;2023-12-28T06:14:32;0.87;;;0.70;;
7707;SDS011;3896;48.758;8.888;2023-12-28T06:16:57;1.27;;;1.20;;
7707;SDS011;3896;48.758;8.888;2023-12-28T06:19:23;1.30;;;1.03;;
7707;SDS011;3896;48.758;8.888;2023-12-28T06:21:49;4.23;;;1.10;;
7707;SDS011;3896;48.758;8.888;2023-12-28T06:24:14;2.47;;;1.53;;
7707;SDS011;3896;48.758;8.888;2023-12-28T06:26:41;2.27;;;0.97;;
7707;SDS011;3896;48.758;8.888;2023-12-28T06:29:07;1.13;;;1.07;;
7707;SDS011;3896;48.758;8.888;2023-12-28T06:31:34;1.23;;;1.13;;
7707;SDS011;3896;48.758;8.888;2023-12-28T06:34:04;1.10;;;0.90;;
7707;SDS011;3896;48.758;8.888;2023-12-28T06:36:31;3.07;;;1.40;;
7707;SDS011;3896;48.758;8.888;2023-12-28T06:38:57;1.07;;;1.00;;
7707;SDS011;3896;48.758;8.888;2023-12-28T06:41:23;1.33;;;1.00;;
7707;SDS011;3896;48.758;8.888;2023-12-28T06:43:49;1.90;;;1.43;;
7707;SDS011;3896;48.758;8.888;2023-12-28T06:46:15;1.20;;;1.10;;
7707;SDS011;3896;48.758;8.888;2023-12-28T06:48:40;1.13;;;1.10;;
7707;SDS011;3896;48.758;8.888;2023-12-28T06:51:06;2.03;;;1.13;;
7707;SDS011;3896;48.758;8.888;2023-12-28T06:53:32;1.60;;;1.00;;
7707;SDS011;3896;48.758;8.888;2023-12-28T06:55:57;1.07;;;0.90;;
7707;SDS011;3896;48.758;8.888;2023-12-28T06:58:23;1.03;;;1.00;;
7707;SDS011;3896;48.758;8.888;2023-12-28T07:00:49;1.10;;;1.03;;
7707;SDS011;3896;48.758;8.888;2023-12-28T07:03:15;1.07;;;0.83;;
7707;SDS011;3896;48.758;8.888;2023-12-28T07:05:40;1.10;;;1.10;;
7707;SDS011;3896;48.758;8.888;2023-12-28T07:08:06;1.73;;;1.17;;
7707;SDS011;3896;48.758;8.888;2023-12-28T07:10:31;1.17;;;0.90;;
7707;SDS011;3896;48.758;8.888;2023-12-28T07:12:57;3.27;;;1.10;;
7707;SDS011;3896;48.758;8.888;2023-12-28T07:15:23;1.40;;;1.30;;
7707;SDS011;3896;48.758;8.888;2023-12-28T07:17:48;1.07;;;1.00;;
7707;SDS011;3896;48.758;8.888;2023-12-28T07:20:14;0.97;;;0.90;;
7707;SDS011;3896;48.758;8.888;2023-12-28T07:22:39;1.57;;;1.10;;
7707;SDS011;3896;48.758;8.888;2023-12-28T07:25:05;4.07;;;1.13;;
7707;SDS011;3896;48.758;8.888;2023-12-28T07:27:31;2.57;;;1.30;;
7707;SDS011;3896;48.758;8.888;2023-12-28T07:29:57;1.77;;;1.30;;
7707;SDS011;3896;48.758;8.888;2023-12-28T07:32:23;1.47;;;1.20;;
7707;SDS011;3896;48.758;8.888;2023-12-28T07:34:51;1.20;;;1.20;;
7707;SDS011;3896;48.758;8.888;2023-12-28T07:37:17;3.13;;;1.70;;
7707;SDS011;3896;48.758;8.888;2023-12-28T07:39:43;1.30;;;1.27;;
7707;SDS011;3896;48.758;8.888;2023-12-28T07:42:09;1.50;;;1.40;;
7707;SDS011;3896;48.758;8.888;2023-12-28T07:44:35;1.53;;;1.27;;
7707;SDS011;3896;48.758;8.888;2023-12-28T07:47:00;1.63;;;1.40;;
7707;SDS011;3896;48.758;8.888;2023-12-28T07:49:26;1.70;;;1.60;;
7707;SDS011;3896;48.758;8.888;2023-12-28T07:51:53;2.17;;;1.97;;
7707;SDS011;3896;48.758;8.888;2023-12-28T07:54:19;4.90;;;2.77;;
7707;SDS011;3896;48.758;8.888;2023-12-28T07:56:44;3.40;;;2.73;;
7707;SDS011;3896;48.758;8.888;2023-12-28T07:59:10;3.03;;;2.30;;
7707;SDS011;3896;48.758;8.888;2023-12-28T08:01:36;2.73;;;2.23;;
7707;SDS011;3896;48.758;8.888;2023-12-28T08:04:01;2.60;;;2.30;;
7707;SDS011;3896;48.758;8.888;2023-12-28T08:06:28;3.50;;;2.43;;
7707;SDS011;3896;48.758;8.888;2023-12-28T08:08:56;5.70;;;3.13;;
7707;SDS011;3896;48.758;8.888;2023-12-28T08:11:21;5.93;;;3.10;;
7707;SDS011;3896;48.758;8.888;2023-12-28T08:13:47;3.53;;;2.20;;
7707;SDS011;3896;48.758;8.888;2023-12-28T08:16:12;3.93;;;2.83;;
7707;SDS011;3896;48.758;8.888;2023-12-28T08:18:38;3.47;;;2.37;;
7707;SDS011;3896;48.758;8.888;2023-12-28T08:21:03;3.20;;;2.50;;
7707;SDS011;3896;48.758;8.888;2023-12-28T08:23:29;2.00;;;1.57;;
7707;SDS011;3896;48.758;8.888;2023-12-28T08:25:55;3.03;;;1.73;;
7707;SDS011;3896;48.758;8.888;2023-12-28T08:28:20;1.50;;;1.40;;
7707;SDS011;3896;48.758;8.888;2023-12-28T08:30:46;2.53;;;2.00;;
7707;SDS011;3896;48.758;8.888;2023-12-28T08:33:11;2.13;;;1.87;;
7707;SDS011;3896;48.758;8.888;2023-12-28T08:35:37;2.00;;;1.83;;
7707;SDS011;3896;48.758;8.888;2023-12-28T08:38:02;1.50;;;1.40;;
7707;SDS011;3896;48.758;8.888;2023-12-28T08:40:28;2.73;;;1.33;;
7707;SDS011;3896;48.758;8.888;2023-12-28T08:42:53;2.00;;;1.57;;
7707;SDS011;3896;48.758;8.888;2023-12-28T08:45:19;2.80;;;1.60;;
7707;SDS011;3896;48.758;8.888;2023-12-28T08:47:44;2.63;;;1.43;;
7707;SDS011;3896;48.758;8.888;2023-12-28T08:50:10;2.47;;;1.60;;
7707;SDS011;3896;48.758;8.888;2023-12-28T08:52:35;2.37;;;1.80;;
7707;SDS011;3896;48.758;8.888;2023-12-28T08:55:01;1.73;;;1.47;;
7707;SDS011;3896;48.758;8.888;2023-12-28T08:57:27;1.63;;;1.53;;
7707;SDS011;3896;48.758;8.888;2023-12-28T08:59:53;2.57;;;1.37;;
7707;SDS011;3896;48.758;8.888;2023-12-28T09:02:19;3.13;;;1.70;;
7707;SDS011;3896;48.758;8.888;2023-12-28T09:04:44;1.60;;;1.37;;
7707;SDS011;3896;48.758;8.888;2023-12-28T09:07:10;2.57;;;1.10;;
7707;SDS011;3896;48.758;8.888;2023-12-28T09:09:35;1.53;;;1.43;;
7707;SDS011;3896;48.758;8.888;2023-12-28T09:12:01;1.67;;;1.57;;
7707;SDS011;3896;48.758;8.888;2023-12-28T09:14:26;1.83;;;1.33;;
7707;SDS011;3896;48.758;8.888;2023-12-28T09:16:52;1.83;;;1.30;;
7707;SDS011;3896;48.758;8.888;2023-12-28T09:19:18;1.13;;;1.10;;
7707;SDS011;3896;48.758;8.888;2023-12-28T09:21:43;1.87;;;1.47;;
7707;SDS011;3896;48.758;8.888;2023-12-28T09:24:09;1.93;;;1.53;;
7707;SDS011;3896;48.758;8.888;2023-12-28T09:26:34;1.50;;;1.40;;
7707;SDS011;3896;48.758;8.888;2023-12-28T09:29:00;3.23;;;2.40;;
7707;SDS011;3896;48.758;8.888;2023-12-28T09:31:25;2.23;;;1.70;;
7707;SDS011;3896;48.758;8.888;2023-12-28T09:33:51;2.13;;;1.60;;
7707;SDS011;3896;48.758;8.888;2023-12-28T09:36:17;2.27;;;1.87;;
7707;SDS011;3896;48.758;8.888;2023-12-28T09:38:43;4.13;;;1.93;;
7707;SDS011;3896;48.758;8.888;2023-12-28T09:41:12;3.70;;;2.20;;
7707;SDS011;3896;48.758;8.888;2023-12-28T09:43:49;3.30;;;2.07;;
7707;SDS011;3896;48.758;8.888;2023-12-28T09:46:19;2.63;;;2.23;;
7707;SDS011;3896;48.758;8.888;2023-12-28T09:48:45;2.50;;;1.90;;
7707;SDS011;3896;48.758;8.888;2023-12-28T09:51:12;4.17;;;2.10;;
7707;SDS011;3896;48.758;8.888;2023-12-28T09:53:37;3.00;;;2.10;;
7707;SDS011;3896;48.758;8.888;2023-12-28T09:56:03;3.67;;;1.60;;
7707;SDS011;3896;48.758;8.888;2023-12-28T09:58:30;2.00;;;1.87;;
7707;SDS011;3896;48.758;8.888;2023-12-28T10:00:58;3.73;;;1.63;;
7707;SDS011;3896;48.758;8.888;2023-12-28T10:03:25;2.30;;;1.90;;
7707;SDS011;3896;48.758;8.888;2023-12-28T10:05:51;1.73;;;1.30;;
7707;SDS011;3896;48.758;8.888;2023-12-28T10:08:16;1.47;;;1.20;;
7707;SDS011;3896;48.758;8.888;2023-12-28T10:10:42;0.90;;;0.90;;
7707;SDS011;3896;48.758;8.888;2023-12-28T10:13:15;1.47;;;1.20;;
7707;SDS011;3896;48.758;8.888;2023-12-28T10:15:42;1.23;;;1.10;;
7707;SDS011;3896;48.758;8.888;2023-12-28T10:18:08;0.93;;;0.93;;
7707;SDS011;3896;48.758;8.888;2023-12-28T10:20:34;1.47;;;1.17;;
7707;SDS011;3896;48.758;8.888;2023-12-28T10:23:00;1.50;;;1.07;;
7707;SDS011;3896;48.758;8.888;2023-12-28T10:25:28;2.83;;;1.17;;
7707;SDS011;3896;48.758;8.888;2023-12-28T10:27:55;1.03;;;1.00;;
7707;SDS011;3896;48.758;8.888;2023-12-28T10:30:20;1.20;;;1.10;;
7707;SDS011;3896;48.758;8.888;2023-12-28T10:32:47;1.57;;;1.20;;
7707;SDS011;3896;48.758;8.888;2023-12-28T10:35:12;2.97;;;1.37;;
7707;SDS011;3896;48.758;8.888;2023-12-28T10:37:41;1.57;;;1.47;;
7707;SDS011;3896;48.758;8.888;2023-12-28T10:40:08;4.13;;;2.00;;
7707;SDS011;3896;48.758;8.888;2023-12-28T10:42:59;2.23;;;1.37;;
7707;SDS011;3896;48.758;8.888;2023-12-28T10:45:28;1.33;;;1.10;;
7707;SDS011;3896;48.758;8.888;2023-12-28T10:50:26;4.80;;;3.20;;
7707;SDS011;3896;48.758;8.888;2023-12-28T10:52:56;4.73;;;1.80;;
7707;SDS011;3896;48.758;8.888;2023-12-28T10:59:39;2.50;;;2.30;;
7707;SDS011;3896;48.758;8.888;2023-12-28T11:01:46;2.60;;;1.97;;
7707;SDS011;3896;48.758;8.888;2023-12-28T11:04:56;2.73;;;1.50;;
7707;SDS011;3896;48.758;8.888;2023-12-28T11:07:06;1.83;;;1.63;;
7707;SDS011;3896;48.758;8.888;2023-12-28T11:09:34;1.43;;;1.03;;
7707;SDS011;3896;48.758;8.888;2023-12-28T11:12:01;1.57;;;1.30;;
7707;SDS011;3896;48.758;8.888;2023-12-28T11:14:29;1.30;;;1.27;;
7707;SDS011;3896;48.758;8.888;2023-12-28T11:16:57;1.30;;;1.20;;
7707;SDS011;3896;48.758;8.888;2023-12-28T11:19:25;1.20;;;1.10;;
7707;SDS011;3896;48.758;8.888;2023-12-28T11:21:52;1.87;;;0.90;;
7707;SDS011;3896;48.758;8.888;2023-12-28T11:24:21;0.80;;;0.80;;
7707;SDS011;3896;48.758;8.888;2023-12-28T11:26:52;0.80;;;0.80;;
7707;SDS011;3896;48.758;8.888;2023-12-28T11:29:19;1.60;;;1.50;;
7707;SDS011;3896;48.758;8.888;2023-12-28T11:31:50;1.20;;;1.10;;
7707;SDS011;3896;48.758;8.888;2023-12-28T11:34:24;1.50;;;1.40;;
7707;SDS011;3896;48.758;8.888;2023-12-28T11:36:51;2.87;;;1.33;;
7707;SDS011;3896;48.758;8.888;2023-12-28T11:39:20;1.33;;;1.23;;
7707;SDS011;3896;48.758;8.888;2023-12-28T11:42:02;2.83;;;1.67;;
7707;SDS011;3896;48.758;8.888;2023-12-28T11:44:28;3.10;;;1.87;;
7707;SDS011;3896;48.758;8.888;2023-12-28T11:46:55;3.23;;;1.60;;
7707;SDS011;3896;48.758;8.888;2023-12-28T11:49:25;1.97;;;1.50;;
7707;SDS011;3896;48.758;8.888;2023-12-28T11:51:56;1.73;;;1.37;;
7707;SDS011;3896;48.758;8.888;2023-12-28T11:54:23;2.87;;;1.43;;
7707;SDS011;3896;48.758;8.888;2023-12-28T11:56:50;4.53;;;1.33;;
7707;SDS011;3896;48.758;8.888;2023-12-28T11:59:16;1.23;;;1.07;;
7707;SDS011;3896;48.758;8.888;2023-12-28T12:01:41;2.53;;;1.40;;
7707;SDS011;3896;48.758;8.888;2023-12-28T12:04:07;1.27;;;1.17;;
7707;SDS011;3896;48.758;8.888;2023-12-28T12:06:32;1.63;;;1.37;;
7707;SDS011;3896;48.758;8.888;2023-12-28T12:08:58;3.13;;;1.20;;
7707;SDS011;3896;48.758;8.888;2023-12-28T12:11:24;1.70;;;1.30;;
7707;SDS011;3896;48.758;8.888;2023-12-28T12:13:50;3.53;;;1.60;;
7707;SDS011;3896;48.758;8.888;2023-12-28T12:16:16;1.97;;;1.33;;
7707;SDS011;3896;48.758;8.888;2023-12-28T12:18:43;3.83;;;2.00;;
7707;SDS011;3896;48.758;8.888;2023-12-28T12:21:09;2.83;;;1.60;;
7707;SDS011;3896;48.758;8.888;2023-12-28T12:23:34;2.40;;;1.23;;
7707;SDS011;3896;48.758;8.888;2023-12-28T12:26:00;1.77;;;1.43;;
7707;SDS011;3896;48.758;8.888;2023-12-28T12:28:29;2.00;;;1.40;;
7707;SDS011;3896;48.758;8.888;2023-12-28T12:30:55;1.43;;;1.33;;
7707;SDS011;3896;48.758;8.888;2023-12-28T12:33:21;1.20;;;1.10;;
7707;SDS011;3896;48.758;8.888;2023-12-28T12:35:47;1.67;;;1.57;;
7707;SDS011;3896;48.758;8.888;2023-12-28T12:38:14;3.60;;;1.30;;
7707;SDS011;3896;48.758;8.888;2023-12-28T12:40:41;1.97;;;1.67;;
7707;SDS011;3896;48.758;8.888;2023-12-28T12:43:07;1.00;;;1.00;;
7707;SDS011;3896;48.758;8.888;2023-12-28T12:45:35;1.90;;;1.13;;
7707;SDS011;3896;48.758;8.888;2023-12-28T12:48:04;1.50;;;1.40;;
7707;SDS011;3896;48.758;8.888;2023-12-28T12:50:31;1.63;;;1.00;;
7707;SDS011;3896;48.758;8.888;2023-12-28T12:52:59;0.93;;;0.90;;
7707;SDS011;3896;48.758;8.888;2023-12-28T12:55:25;1.07;;;0.97;;
7707;SDS011;3896;48.758;8.888;2023-12-28T12:57:51;0.90;;;0.90;;
7707;SDS011;3896;48.758;8.888;2023-12-28T13:00:20;1.27;;;1.07;;
7707;SDS011;3896;48.758;8.888;2023-12-28T13:02:46;4.10;;;1.00;;
7707;SDS011;3896;48.758;8.888;2023-12-28T13:05:12;2.63;;;1.23;;
7707;SDS011;3896;48.758;8.888;2023-12-28T13:07:38;0.97;;;0.97;;
7707;SDS011;3896;48.758;8.888;2023-12-28T13:10:03;1.03;;;0.93;;
7707;SDS011;3896;48.758;8.888;2023-12-28T13:12:30;1.10;;;1.10;;
7707;SDS011;3896;48.758;8.888;2023-12-28T13:14:57;1.33;;;1.23;;
7707;SDS011;3896;48.758;8.888;2023-12-28T13:17:22;1.67;;;1.50;;
7707;SDS011;3896;48.758;8.888;2023-12-28T13:19:48;1.20;;;1.10;;
7707;SDS011;3896;48.758;8.888;2023-12-28T13:22:14;1.20;;;1.10;;
7707;SDS011;3896;48.758;8.888;2023-12-28T13:24:40;0.97;;;0.93;;
7707;SDS011;3896;48.758;8.888;2023-12-28T13:27:05;1.37;;;1.20;;
7707;SDS011;3896;48.758;8.888;2023-12-28T13:29:31;0.90;;;0.90;;
7707;SDS011;3896;48.758;8.888;2023-12-28T13:31:56;0.90;;;0.90;;
7707;SDS011;3896;48.758;8.888;2023-12-28T13:34:23;1.83;;;1.20;;
7707;SDS011;3896;48.758;8.888;2023-12-28T13:36:48;1.23;;;1.13;;
7707;SDS011;3896;48.758;8.888;2023-12-28T13:39:14;1.50;;;1.40;;
7707;SDS011;3896;48.758;8.888;2023-12-28T13:41:40;2.73;;;1.63;;
7707;SDS011;3896;48.758;8.888;2023-12-28T13:44:06;1.97;;;1.20;;
7707;SDS011;3896;48.758;8.888;2023-12-28T13:46:35;1.90;;;1.10;;
7707;SDS011;3896;48.758;8.888;2023-12-28T13:49:01;1.07;;;0.90;;
7707;SDS011;3896;48.758;8.888;2023-12-28T13:51:29;1.53;;;1.20;;
7707;SDS011;3896;48.758;8.888;2023-12-28T13:53:55;1.57;;;1.47;;
7707;SDS011;3896;48.758;8.888;2023-12-28T13:56:20;0.80;;;0.80;;
7707;SDS011;3896;48.758;8.888;2023-12-28T13:58:46;0.50;;;0.50;;
7707;SDS011;3896;48.758;8.888;2023-12-28T14:01:11;0.87;;;0.87;;
7707;SDS011;3896;48.758;8.888;2023-12-28T14:03:38;1.17;;;1.00;;
7707;SDS011;3896;48.758;8.888;2023-12-28T14:06:03;2.27;;;1.73;;
7707;SDS011;3896;48.758;8.888;2023-12-28T14:08:29;4.50;;;2.30;;
7707;SDS011;3896;48.758;8.888;2023-12-28T14:10:55;7.20;;;2.70;;
7707;SDS011;3896;48.758;8.888;2023-12-28T14:13:20;3.17;;;2.50;;
7707;SDS011;3896;48.758;8.888;2023-12-28T14:15:47;1.50;;;1.40;;
7707;SDS011;3896;48.758;8.888;2023-12-28T14:18:12;1.57;;;1.47;;
7707;SDS011;3896;48.758;8.888;2023-12-28T14:20:38;1.60;;;1.13;;
7707;SDS011;3896;48.758;8.888;2023-12-28T14:23:04;1.30;;;1.00;;
7707;SDS011;3896;48.758;8.888;2023-12-28T14:25:29;1.23;;;1.10;;
7707;SDS011;3896;48.758;8.888;2023-12-28T14:27:55;1.63;;;1.13;;
7707;SDS011;3896;48.758;8.888;2023-12-28T14:30:21;1.80;;;1.50;;
7707;SDS011;3896;48.758;8.888;2023-12-28T14:32:47;1.70;;;1.07;;
7707;SDS011;3896;48.758;8.888;2023-12-28T14:35:13;1.83;;;1.33;;
7707;SDS011;3896;48.758;8.888;2023-12-28T14:37:43;1.17;;;1.07;;
7707;SDS011;3896;48.758;8.888;2023-12-28T14:40:11;1.63;;;1.30;;
7707;SDS011;3896;48.758;8.888;2023-12-28T14:42:37;1.33;;;1.23;;
7707;SDS011;3896;48.758;8.888;2023-12-28T14:45:03;1.10;;;1.07;;
7707;SDS011;3896;48.758;8.888;2023-12-28T14:47:30;1.40;;;1.30;;
7707;SDS011;3896;48.758;8.888;2023-12-28T14:49:55;1.70;;;1.60;;
7707;SDS011;3896;48.758;8.888;2023-12-28T14:52:22;1.40;;;1.40;;
7707;SDS011;3896;48.758;8.888;2023-12-28T14:54:51;1.30;;;1.20;;
7707;SDS011;3896;48.758;8.888;2023-12-28T14:57:18;2.20;;;1.20;;
7707;SDS011;3896;48.758;8.888;2023-12-28T14:59:44;1.30;;;1.20;;
7707;SDS011;3896;48.758;8.888;2023-12-28T15:02:10;1.40;;;1.30;;
7707;SDS011;3896;48.758;8.888;2023-12-28T15:04:35;2.57;;;1.63;;
7707;SDS011;3896;48.758;8.888;2023-12-28T15:07:03;1.00;;;1.00;;
7707;SDS011;3896;48.758;8.888;2023-12-28T15:09:28;5.00;;;1.73;;
7707;SDS011;3896;48.758;8.888;2023-12-28T15:11:54;2.57;;;1.20;;
7707;SDS011;3896;48.758;8.888;2023-12-28T15:14:20;1.67;;;1.57;;
7707;SDS011;3896;48.758;8.888;2023-12-28T15:16:46;2.10;;;1.60;;
7707;SDS011;3896;48.758;8.888;2023-12-28T15:19:12;1.60;;;1.50;;
7707;SDS011;3896;48.758;8.888;2023-12-28T15:21:39;1.83;;;1.70;;
7707;SDS011;3896;48.758;8.888;2023-12-28T15:24:05;3.23;;;1.70;;
7707;SDS011;3896;48.758;8.888;2023-12-28T15:26:32;2.37;;;1.90;;
7707;SDS011;3896;48.758;8.888;2023-12-28T15:28:58;5.03;;;2.10;;
7707;SDS011;3896;48.758;8.888;2023-12-28T15:31:24;2.73;;;1.90;;
7707;SDS011;3896;48.758;8.888;2023-12-28T15:33:49;2.43;;;1.83;;
7707;SDS011;3896;48.758;8.888;2023-12-28T15:36:15;2.60;;;1.70;;
7707;SDS011;3896;48.758;8.888;2023-12-28T15:38:41;1.90;;;1.70;;